createdAt,value
2022-10-11T00:01:00.414Z,99.90
2022-10-11T00:04:02.355Z,99.90
2022-10-11T00:07:04.450Z,99.90
2022-10-11T00:10:07.648Z,99.90
2022-10-11T00:13:09.556Z,99.90
2022-10-11T00:16:12.855Z,99.90
2022-10-11T00:19:14.826Z,99.90
2022-10-11T00:22:16.703Z,99.90
2022-10-11T00:25:19.316Z,99.90
2022-10-11T00:28:21.214Z,99.90
2022-10-11T00:31:23.601Z,99.90
2022-10-11T00:34:25.474Z,99.90
2022-10-11T00:37:27.455Z,99.90
2022-10-11T00:40:29.313Z,99.90
2022-10-11T00:43:31.960Z,99.90
2022-10-11T00:46:33.944Z,99.90
2022-10-11T00:49:49.207Z,99.90
2022-10-11T00:52:56.301Z,99.90
2022-10-11T00:56:07.343Z,99.90
2022-10-11T00:59:14.536Z,99.90
2022-10-11T01:02:17.616Z,99.90
2022-10-11T01:05:32.453Z,99.90
2022-10-11T01:08:34.760Z,99.90
2022-10-11T01:11:39.305Z,99.90
2022-10-11T01:14:55.901Z,99.90
2022-10-11T01:18:07.454Z,99.90
2022-10-11T01:21:26.577Z,99.90
2022-10-11T01:24:52.501Z,99.90
2022-10-11T01:28:04.269Z,99.90
2022-10-11T01:31:20.575Z,99.90
2022-10-11T01:34:30.878Z,99.90
2022-10-11T01:37:40.729Z,99.90
2022-10-11T01:40:49.121Z,99.90
2022-10-11T01:43:57.678Z,99.90
2022-10-11T01:46:59.539Z,99.90
2022-10-11T01:50:02.537Z,99.90
2022-10-11T01:53:16.148Z,99.90
2022-10-11T01:56:26.929Z,99.90
2022-10-11T01:59:31.794Z,99.90
2022-10-11T02:02:54.958Z,99.90
2022-10-11T02:06:16.384Z,99.90
2022-10-11T02:09:31.562Z,99.90
2022-10-11T02:12:40.561Z,99.90
2022-10-11T02:15:45.368Z,99.90
2022-10-11T02:18:51.118Z,99.90
2022-10-11T02:21:57.974Z,99.90
2022-10-11T02:25:02.976Z,99.90
2022-10-11T02:28:14.191Z,99.90
2022-10-11T02:31:17.722Z,99.90
2022-10-11T02:34:33.665Z,99.90
2022-10-11T02:38:00.563Z,99.90
2022-10-11T02:41:13.131Z,99.90
2022-10-11T02:44:23.831Z,99.90
2022-10-11T02:47:30.509Z,99.90
2022-10-11T02:50:32.394Z,99.90
2022-10-11T02:53:34.358Z,99.90
2022-10-11T02:56:36.234Z,99.90
2022-10-11T02:59:38.081Z,99.90
2022-10-11T03:02:39.934Z,99.90
2022-10-11T03:05:42.025Z,99.90
2022-10-11T03:08:44.944Z,99.90
2022-10-11T03:11:46.788Z,99.90
2022-10-11T03:14:48.667Z,99.90
2022-10-11T03:17:50.495Z,99.90
2022-10-11T03:20:52.530Z,99.90
2022-10-11T03:23:54.387Z,99.90
2022-10-11T03:26:56.256Z,99.90
2022-10-11T03:29:58.149Z,99.90
2022-10-11T03:33:00.029Z,99.90
2022-10-11T03:36:03.152Z,99.90
2022-10-11T03:39:05.692Z,99.90
2022-10-11T03:42:07.562Z,99.90
2022-10-11T03:45:10.059Z,99.90
2022-10-11T03:48:12.409Z,99.90
2022-10-11T03:51:15.263Z,99.90
2022-10-11T03:54:17.115Z,99.90
2022-10-11T03:57:19.424Z,99.90
2022-10-11T04:00:21.334Z,99.90
2022-10-11T04:03:23.259Z,99.90
2022-10-11T04:06:25.333Z,99.90
2022-10-11T04:09:27.747Z,99.90
2022-10-11T04:12:29.617Z,99.90
2022-10-11T04:15:31.842Z,99.90
2022-10-11T04:18:33.678Z,99.90
2022-10-11T04:21:35.577Z,99.90
2022-10-11T04:24:37.583Z,99.90
2022-10-11T04:27:39.654Z,99.90
2022-10-11T04:30:41.489Z,99.90
2022-10-11T04:33:43.485Z,99.90
2022-10-11T04:36:49.587Z,99.90
2022-10-11T04:39:51.875Z,99.90
2022-10-11T04:42:53.859Z,99.90
2022-10-11T04:45:55.947Z,99.90
2022-10-11T04:48:57.998Z,99.90
2022-10-11T04:51:59.863Z,99.90
2022-10-11T04:55:01.838Z,99.90
2022-10-11T04:58:03.720Z,99.90
2022-10-11T05:01:05.609Z,99.90
2022-10-11T05:04:07.607Z,99.90
2022-10-11T05:07:09.509Z,99.90
2022-10-11T05:10:11.476Z,99.90
2022-10-11T05:13:13.358Z,99.90
2022-10-11T05:16:16.044Z,99.90
2022-10-11T05:19:18.323Z,99.90
2022-10-11T05:22:20.210Z,99.90
2022-10-11T05:25:24.600Z,99.90
2022-10-11T05:28:27.533Z,99.90
2022-10-11T05:31:29.471Z,99.90
2022-10-11T05:34:31.522Z,99.90
2022-10-11T05:37:33.372Z,99.90
2022-10-11T05:40:36.578Z,99.90
2022-10-11T05:43:38.508Z,99.90
2022-10-11T05:46:40.430Z,99.90
2022-10-11T05:49:42.258Z,99.90
2022-10-11T05:52:44.133Z,99.90
2022-10-11T05:55:46.176Z,99.90
2022-10-11T05:58:48.553Z,99.90
2022-10-11T06:01:51.407Z,99.90
2022-10-11T06:04:53.491Z,99.90
2022-10-11T06:07:55.402Z,99.90
2022-10-11T06:10:57.344Z,99.90
2022-10-11T06:13:59.235Z,99.90
2022-10-11T06:17:01.138Z,99.90
2022-10-11T06:20:03.942Z,99.90
2022-10-11T06:23:05.811Z,99.90
2022-10-11T06:26:09.334Z,99.90
2022-10-11T06:29:11.706Z,99.90
2022-10-11T06:32:13.667Z,99.90
2022-10-11T06:35:15.540Z,99.90
2022-10-11T06:38:17.460Z,99.90
2022-10-11T06:41:28.661Z,99.90
2022-10-11T06:44:30.627Z,99.90
2022-10-11T06:47:32.555Z,99.90
2022-10-11T06:50:57.865Z,99.90
2022-10-11T06:53:59.834Z,99.90
2022-10-11T06:57:01.742Z,99.90
2022-10-11T07:00:07.970Z,99.90
2022-10-11T07:03:13.646Z,99.90
2022-10-11T07:06:23.639Z,99.90
2022-10-11T07:09:25.563Z,99.90
2022-10-11T07:12:28.897Z,99.90
2022-10-11T07:15:30.629Z,99.90
2022-10-11T07:18:32.795Z,99.90
2022-10-11T07:21:35.574Z,99.90
2022-10-11T07:24:37.471Z,99.90
2022-10-11T07:27:39.369Z,99.90
2022-10-11T07:30:42.406Z,99.90
2022-10-11T07:33:44.562Z,99.90
2022-10-11T07:36:47.165Z,99.90
2022-10-11T07:39:49.720Z,99.90
2022-10-11T07:42:51.610Z,99.90
2022-10-11T07:45:55.648Z,99.90
2022-10-11T07:48:57.566Z,99.90
2022-10-11T07:51:59.415Z,99.90
2022-10-11T07:55:01.265Z,99.90
2022-10-11T07:58:03.107Z,99.90
2022-10-11T08:01:05.827Z,99.90
2022-10-11T08:04:07.857Z,99.90
2022-10-11T08:07:09.730Z,99.90
2022-10-11T08:10:11.640Z,99.90
2022-10-11T08:13:14.492Z,99.90
2022-10-11T08:16:16.912Z,99.90
2022-10-11T08:19:18.984Z,99.90
2022-10-11T08:22:20.812Z,99.90
2022-10-11T08:25:22.797Z,99.90
2022-10-11T08:28:24.769Z,99.90
2022-10-11T08:31:26.712Z,99.90
2022-10-11T08:34:28.683Z,99.90
2022-10-11T08:37:30.623Z,99.90
2022-10-11T08:40:35.320Z,99.90
2022-10-11T08:43:53.120Z,99.90
2022-10-11T08:47:03.102Z,99.90
2022-10-11T08:50:07.695Z,99.90
2022-10-11T08:53:22.371Z,99.90
2022-10-11T08:56:26.606Z,99.90
2022-10-11T08:59:36.475Z,99.90
2022-10-11T09:03:07.379Z,99.90
2022-10-11T09:06:23.955Z,99.90
2022-10-11T09:09:54.451Z,99.90
2022-10-11T09:13:31.149Z,99.90
2022-10-11T09:16:45.708Z,99.90
2022-10-11T09:20:17.645Z,99.90
2022-10-11T09:23:52.853Z,99.90
2022-10-11T09:27:01.495Z,99.90
2022-10-11T09:30:11.658Z,99.90
2022-10-11T09:33:27.496Z,99.90
2022-10-11T09:36:50.668Z,99.90
2022-10-11T09:40:30.832Z,99.90
2022-10-11T09:43:32.819Z,99.90
2022-10-11T09:46:36.478Z,99.90
2022-10-11T09:49:42.775Z,99.90
2022-10-11T09:52:56.358Z,99.90
2022-10-11T09:56:04.999Z,99.90
2022-10-11T09:59:25.154Z,99.90
2022-10-11T10:02:31.065Z,99.90
2022-10-11T10:05:36.906Z,99.90
2022-10-11T10:08:38.883Z,99.70
2022-10-11T10:11:40.801Z,99.10
2022-10-11T10:14:42.662Z,98.10
2022-10-11T10:17:52.979Z,97.80
2022-10-11T10:20:59.484Z,98.00
2022-10-11T10:24:05.302Z,97.90
2022-10-11T10:27:07.156Z,96.60
2022-10-11T10:30:08.953Z,96.10
2022-10-11T10:33:12.082Z,95.80
2022-10-11T10:36:18.803Z,95.80
2022-10-11T10:39:34.896Z,96.00
2022-10-11T10:42:37.673Z,95.10
2022-10-11T10:46:08.300Z,94.30
2022-10-11T10:53:21.390Z,91.50
2022-10-11T10:56:37.478Z,91.40
2022-10-11T10:59:50.161Z,89.70
2022-10-11T11:03:03.137Z,88.20
2022-10-11T11:06:06.999Z,89.30
2022-10-11T11:09:21.132Z,90.00
2022-10-11T11:12:56.444Z,90.40
2022-10-11T11:16:07.650Z,89.40
2022-10-11T11:19:20.506Z,85.40
2022-10-11T11:22:53.004Z,85.50
2022-10-11T11:26:31.618Z,84.00
2022-10-11T11:29:55.854Z,86.70
2022-10-11T11:33:07.391Z,85.40
2022-10-11T11:36:17.939Z,82.70
2022-10-11T11:39:30.044Z,85.00
2022-10-11T11:42:41.857Z,86.10
2022-10-11T11:46:01.293Z,82.70
2022-10-11T11:49:15.599Z,82.00
2022-10-11T11:52:26.661Z,83.50
2022-10-11T11:55:54.572Z,83.90
2022-10-11T11:59:09.852Z,82.70
2022-10-11T12:02:43.240Z,81.70
2022-10-11T12:06:14.346Z,82.50
2022-10-11T12:09:19.085Z,81.40
2022-10-11T12:12:35.533Z,81.30
2022-10-11T12:15:38.831Z,80.50
2022-10-11T12:19:08.405Z,82.90
2022-10-11T12:22:35.338Z,80.00
2022-10-11T12:25:41.749Z,77.90
2022-10-11T12:29:00.600Z,77.10
2022-10-11T12:32:02.883Z,74.50
2022-10-11T12:35:33.807Z,74.50
2022-10-11T12:38:40.227Z,74.70
2022-10-11T12:41:51.819Z,75.10
2022-10-11T12:45:24.167Z,77.30
2022-10-11T12:48:52.588Z,76.70
2022-10-11T12:51:54.466Z,74.80
2022-10-11T12:55:09.001Z,75.80
2022-10-11T12:58:41.857Z,75.70
2022-10-11T13:01:58.183Z,75.10
2022-10-11T13:05:16.864Z,74.30
2022-10-11T13:08:25.055Z,73.80
2022-10-11T13:11:57.261Z,72.10
2022-10-11T13:15:00.119Z,71.50
2022-10-11T13:18:02.856Z,71.20
2022-10-11T13:21:23.072Z,73.70
2022-10-11T13:24:28.625Z,73.20
2022-10-11T13:27:30.949Z,71.60
2022-10-11T13:30:35.967Z,71.70
2022-10-11T13:33:42.208Z,70.20
2022-10-11T13:36:44.171Z,72.50
2022-10-11T13:39:49.083Z,73.70
2022-10-11T13:42:53.728Z,75.10
2022-10-11T13:45:58.694Z,73.40
2022-10-11T13:49:24.220Z,73.50
2022-10-11T13:52:26.908Z,72.90
2022-10-11T13:55:49.896Z,75.50
2022-10-11T13:58:54.250Z,72.20
2022-10-11T14:02:01.885Z,74.40
2022-10-11T14:05:04.251Z,69.30
2022-10-11T14:08:29.268Z,68.70
2022-10-11T14:11:40.048Z,70.00
2022-10-11T14:14:43.017Z,68.30
2022-10-11T14:17:45.905Z,65.10
2022-10-11T14:20:47.803Z,66.50
2022-10-11T14:23:52.759Z,67.10
2022-10-11T14:26:56.412Z,65.00
2022-10-11T14:30:25.212Z,67.30
2022-10-11T14:33:20.867Z,68.10
2022-10-11T14:36:23.779Z,69.50
2022-10-11T14:39:28.071Z,67.80
2022-10-11T14:42:29.939Z,68.90
2022-10-11T14:45:31.887Z,70.00
2022-10-11T14:48:54.453Z,71.90
2022-10-11T14:51:59.011Z,70.60
2022-10-11T14:55:01.154Z,72.60
2022-10-11T14:58:03.642Z,72.90
2022-10-11T15:01:05.672Z,80.20
2022-10-11T15:04:09.280Z,79.50
2022-10-11T15:07:12.770Z,76.70
2022-10-11T15:10:17.603Z,78.50
2022-10-11T15:13:19.673Z,80.80
2022-10-11T15:16:22.434Z,80.60
2022-10-11T15:19:25.236Z,79.10
2022-10-11T15:22:27.369Z,79.20
2022-10-11T15:25:29.938Z,79.20
2022-10-11T15:28:33.344Z,81.50
2022-10-11T15:31:35.558Z,81.20
2022-10-11T15:34:37.479Z,84.80
2022-10-11T15:37:39.678Z,82.00
2022-10-11T15:40:41.617Z,83.00
2022-10-11T15:43:44.958Z,83.90
2022-10-11T15:46:46.927Z,84.50
2022-10-11T15:49:48.815Z,83.90
2022-10-11T15:52:51.854Z,84.30
2022-10-11T15:55:56.658Z,84.40
2022-10-11T15:58:58.694Z,85.80
2022-10-11T16:02:00.559Z,86.40
2022-10-11T16:05:02.475Z,86.90
2022-10-11T16:08:04.564Z,86.60
2022-10-11T16:11:07.894Z,87.30
2022-10-11T16:14:11.848Z,86.70
2022-10-11T16:17:13.852Z,85.40
2022-10-11T16:20:18.588Z,86.00
2022-10-11T16:23:21.977Z,85.50
2022-10-11T16:26:23.731Z,86.60
2022-10-11T16:29:25.748Z,88.20
2022-10-11T16:32:28.384Z,89.20
2022-10-11T16:35:32.520Z,88.90
2022-10-11T16:38:35.365Z,90.00
2022-10-11T16:41:37.532Z,90.30
2022-10-11T16:44:39.671Z,91.00
2022-10-11T16:47:42.660Z,91.10
2022-10-11T16:50:44.484Z,91.30
2022-10-11T16:53:46.352Z,91.60
2022-10-11T16:56:49.847Z,91.30
2022-10-11T16:59:51.793Z,91.50
2022-10-11T17:02:53.688Z,91.00
2022-10-11T17:05:55.626Z,91.80
2022-10-11T17:08:57.633Z,91.70
2022-10-11T17:11:59.534Z,91.60
2022-10-11T17:15:01.390Z,91.70
2022-10-11T17:18:03.959Z,92.10
2022-10-11T17:21:08.676Z,93.70
2022-10-11T17:24:10.545Z,93.40
2022-10-11T17:27:12.677Z,93.60
2022-10-11T17:30:15.091Z,93.70
2022-10-11T17:33:16.908Z,94.10
2022-10-11T17:36:28.071Z,94.70
2022-10-11T17:39:30.029Z,94.30
2022-10-11T17:42:31.962Z,94.00
2022-10-11T17:45:33.786Z,94.30
2022-10-11T17:48:36.961Z,94.90
2022-10-11T17:51:40.200Z,96.10
2022-10-11T17:54:42.139Z,96.30
2022-10-11T17:57:44.075Z,96.60
2022-10-11T18:00:46.065Z,96.90
2022-10-11T18:04:03.150Z,96.80
2022-10-11T18:07:05.095Z,96.80
2022-10-11T18:10:07.422Z,97.40
2022-10-11T18:13:14.548Z,97.90
2022-10-11T18:16:19.694Z,98.10
2022-10-11T18:19:21.704Z,98.80
2022-10-11T18:22:23.682Z,99.90
2022-10-11T18:25:25.914Z,99.90
2022-10-11T18:28:27.880Z,99.90
2022-10-11T18:31:33.678Z,99.90
2022-10-11T18:34:35.895Z,99.90
2022-10-11T18:37:37.814Z,99.90
2022-10-11T18:40:44.753Z,99.90
2022-10-11T18:43:54.620Z,99.90
2022-10-11T18:46:56.497Z,99.90
2022-10-11T18:49:58.360Z,99.90
2022-10-11T18:53:00.481Z,99.90
2022-10-11T18:56:04.268Z,99.90
2022-10-11T18:59:07.617Z,99.90
2022-10-11T19:02:12.008Z,99.90
2022-10-11T19:05:14.158Z,99.90
2022-10-11T19:08:16.068Z,99.90
2022-10-11T19:11:22.129Z,99.90
2022-10-11T19:14:26.867Z,99.90
2022-10-11T19:17:28.838Z,99.90
2022-10-11T19:20:30.775Z,99.90
2022-10-11T19:23:39.254Z,99.90
2022-10-11T19:26:42.129Z,99.90
2022-10-11T19:29:43.994Z,99.90
2022-10-11T19:32:45.862Z,99.90
2022-10-11T19:35:58.352Z,99.90
2022-10-11T19:39:00.214Z,99.90
2022-10-11T19:42:02.589Z,99.90
2022-10-11T19:45:05.046Z,99.90
2022-10-11T19:48:07.045Z,99.90
2022-10-11T19:51:12.402Z,99.90
2022-10-11T19:54:15.261Z,99.90
2022-10-11T19:57:17.118Z,99.90
2022-10-11T20:00:19.208Z,99.90
2022-10-11T20:03:21.072Z,99.90
2022-10-11T20:06:24.098Z,99.90
2022-10-11T20:09:30.645Z,99.90
2022-10-11T20:12:33.721Z,99.90
2022-10-11T20:15:40.239Z,99.90
2022-10-11T20:18:42.649Z,99.90
2022-10-11T20:21:45.295Z,99.90
2022-10-11T20:24:47.237Z,99.90
2022-10-11T20:27:49.107Z,99.90
2022-10-11T20:30:50.931Z,99.90
2022-10-11T20:33:59.052Z,99.90
2022-10-11T20:37:00.892Z,99.90
2022-10-11T20:40:05.931Z,99.90
2022-10-11T20:43:08.107Z,99.90
2022-10-11T20:46:15.672Z,99.90
2022-10-11T20:49:19.880Z,99.90
2022-10-11T20:52:22.141Z,99.90
2022-10-11T20:55:24.039Z,99.90
2022-10-11T20:58:25.994Z,99.90
2022-10-11T21:01:31.757Z,99.90
2022-10-11T21:04:34.276Z,99.90
2022-10-11T21:07:36.485Z,99.90
2022-10-11T21:10:39.603Z,99.90
2022-10-11T21:13:42.225Z,99.90
2022-10-11T21:16:44.179Z,99.90
2022-10-11T21:19:46.043Z,99.90
2022-10-11T21:22:47.967Z,99.90
2022-10-11T21:25:49.780Z,99.90
2022-10-11T21:28:52.392Z,99.90
2022-10-11T21:31:54.267Z,99.90
2022-10-11T21:34:56.136Z,99.90
2022-10-11T21:37:59.684Z,99.90
2022-10-11T21:41:05.396Z,99.90
2022-10-11T21:44:07.225Z,99.90
2022-10-11T21:47:10.036Z,99.90
2022-10-11T21:50:12.216Z,99.90
2022-10-11T21:53:14.123Z,99.90
2022-10-11T21:56:16.156Z,99.90
2022-10-11T21:59:18.062Z,99.90
2022-10-11T22:02:19.950Z,99.90
2022-10-11T22:05:21.828Z,99.90
2022-10-11T22:08:23.915Z,99.90
2022-10-11T22:11:25.813Z,99.90
2022-10-11T22:14:29.280Z,99.90
2022-10-11T22:17:31.164Z,99.90
2022-10-11T22:20:33.333Z,99.90
2022-10-11T22:23:35.587Z,99.90
2022-10-11T22:26:37.633Z,99.90
2022-10-11T22:29:39.499Z,99.90
2022-10-11T22:32:41.459Z,99.90
2022-10-11T22:35:43.372Z,99.90
2022-10-11T22:38:45.653Z,99.90
2022-10-11T22:41:47.510Z,99.90
2022-10-11T22:44:50.693Z,99.90
2022-10-11T22:47:52.564Z,99.90
2022-10-11T22:50:54.629Z,99.90
2022-10-11T22:53:56.505Z,99.90
2022-10-11T22:56:58.326Z,99.90
2022-10-11T23:00:00.198Z,99.90
2022-10-11T23:03:02.137Z,99.90
2022-10-11T23:06:04.232Z,99.90
2022-10-11T23:09:06.128Z,99.90
2022-10-11T23:12:08.164Z,99.90
2022-10-11T23:15:10.975Z,99.90
2022-10-11T23:18:13.132Z,99.90
2022-10-11T23:21:14.955Z,99.90
2022-10-11T23:24:16.873Z,99.90
2022-10-11T23:27:18.762Z,99.90
2022-10-11T23:30:20.641Z,99.90
2022-10-11T23:33:22.500Z,99.90
2022-10-11T23:36:25.861Z,99.90
2022-10-11T23:39:28.251Z,99.90
2022-10-11T23:42:30.178Z,99.90
2022-10-11T23:45:31.975Z,99.90
2022-10-11T23:48:33.832Z,99.90
2022-10-11T23:51:35.813Z,99.90
2022-10-11T23:54:37.713Z,99.90
2022-10-11T23:57:39.871Z,99.90
